Time;durP1;ratioP1;P1;durP2;ratioP2;P2;SDS_P1;SDS_P2;PMS_P1;PMS_P2;Temp;Humidity;BMP_temperature;BMP_pressure;BME280_temperature;BME280_humidity;BME280_pressure;Samples;Min_cycle;Max_cycle;Signal;HPM_P1;HPM_P2
2022/05/29 00:01:12;;;;;;;3.63;1.20;;;11.50;66.10;;;;;;5091003;28;20047;-82
2022/05/29 00:03:39;;;;;;;6.72;1.27;;;11.50;66.10;;;;;;5091779;28;20058;-82
2022/05/29 00:06:06;;;;;;;4.20;1.30;;;11.40;66.20;;;;;;5091898;28;20044;-81
2022/05/29 00:08:37;;;;;;;3.55;1.20;;;11.40;66.20;;;;;;5090812;28;20097;-82
2022/05/29 00:11:06;;;;;;;4.00;1.10;;;11.40;66.30;;;;;;5092213;28;20429;-82
2022/05/29 00:13:33;;;;;;;4.65;1.20;;;11.40;66.30;;;;;;5094092;28;20064;-82
2022/05/29 00:15:59;;;;;;;3.00;1.10;;;11.30;66.40;;;;;;5090631;28;20109;-82
2022/05/29 00:18:26;;;;;;;5.57;1.45;;;11.30;66.40;;;;;;5091762;28;20048;-82
2022/05/29 00:20:56;;;;;;;7.30;1.73;;;11.30;66.50;;;;;;5091472;28;20048;-82
2022/05/29 00:23:26;;;;;;;4.60;1.45;;;11.30;66.50;;;;;;5091699;28;20458;-82
2022/05/29 00:25:54;;;;;;;5.13;1.60;;;11.20;66.60;;;;;;5091846;28;20047;-82
2022/05/29 00:28:21;;;;;;;3.97;1.30;;;11.20;66.60;;;;;;5092613;28;20047;-82
2022/05/29 00:30:49;;;;;;;5.25;1.65;;;11.20;66.70;;;;;;5091379;28;20571;-83
2022/05/29 00:33:16;;;;;;;5.65;1.55;;;11.20;66.70;;;;;;5091411;28;20040;-83
2022/05/29 00:35:43;;;;;;;4.35;1.45;;;11.10;66.80;;;;;;5091172;28;20056;-83
2022/05/29 00:38:13;;;;;;;4.63;1.58;;;11.10;66.90;;;;;;5091638;28;20040;-83
2022/05/29 00:40:59;;;;;;;5.30;1.60;;;11.10;66.90;;;;;;5093057;28;20105;-83
2022/05/29 00:43:26;;;;;;;5.47;1.40;;;11.00;66.90;;;;;;5092336;28;20052;-82
2022/05/29 00:45:55;;;;;;;5.40;1.73;;;11.00;67.00;;;;;;5091252;28;20142;-83
2022/05/29 00:48:23;;;;;;;5.90;1.42;;;11.00;67.00;;;;;;5088882;28;20043;-82
2022/05/29 00:50:53;;;;;;;5.20;1.40;;;11.00;67.00;;;;;;5090674;28;20105;-82
2022/05/29 00:53:22;;;;;;;4.13;1.15;;;10.90;67.10;;;;;;5090246;28;20045;-83
2022/05/29 00:55:55;;;;;;;3.75;1.30;;;10.90;67.10;;;;;;5092043;28;20497;-82
2022/05/29 00:58:24;;;;;;;4.77;1.30;;;10.90;67.20;;;;;;5091663;28;20040;-82
2022/05/29 01:00:53;;;;;;;3.92;1.33;;;10.90;67.20;;;;;;5091143;28;20056;-82
2022/05/29 01:03:21;;;;;;;6.63;1.50;;;10.90;67.20;;;;;;5090627;28;20075;-82
2022/05/29 01:05:48;;;;;;;5.75;1.52;;;10.80;67.20;;;;;;5091074;28;20044;-82
2022/05/29 01:08:26;;;;;;;4.88;1.67;;;10.80;67.30;;;;;;5091146;28;20040;-82
2022/05/29 01:11:09;;;;;;;6.78;1.50;;;10.80;67.30;;;;;;5090929;28;20056;-82
2022/05/29 01:14:13;;;;;;;4.78;1.30;;;10.80;67.30;;;;;;5088675;28;20103;-82
2022/05/29 01:16:48;;;;;;;6.97;1.67;;;10.80;67.40;;;;;;5088879;28;20455;-82
2022/05/29 01:19:39;;;;;;;6.10;1.50;;;10.70;67.40;;;;;;5092264;28;20101;-83
2022/05/29 01:22:45;;;;;;;7.68;1.60;;;10.70;67.40;;;;;;5089816;28;20501;-83
2022/05/29 01:25:31;;;;;;;6.60;1.38;;;10.70;67.40;;;;;;5029605;28;20053;-83
2022/05/29 01:28:34;;;;;;;5.28;1.50;;;10.60;67.50;;;;;;5029893;28;20554;-83
2022/05/29 01:31:14;;;;;;;3.80;1.20;;;10.60;67.50;;;;;;5029733;28;20522;-83
2022/05/29 01:33:56;;;;;;;4.50;1.42;;;10.60;67.60;;;;;;5025070;28;20084;-83
2022/05/29 01:36:37;;;;;;;6.82;1.65;;;10.60;67.60;;;;;;5025266;28;20049;-83
2022/05/29 01:39:30;;;;;;;5.82;1.58;;;10.50;67.70;;;;;;5025390;28;20573;-83
2022/05/29 01:42:03;;;;;;;4.75;1.48;;;10.50;67.70;;;;;;5013176;28;20049;-82
2022/05/29 01:44:41;;;;;;;5.20;1.48;;;10.50;67.70;;;;;;5029560;28;20542;-83
2022/05/29 01:47:35;;;;;;;7.90;2.03;;;10.40;67.70;;;;;;5013520;28;20046;-82
2022/05/29 01:50:08;;;;;;;6.32;1.83;;;10.40;67.80;;;;;;5029114;28;20148;-83
2022/05/29 01:52:41;;;;;;;4.82;1.40;;;10.40;67.80;;;;;;5026071;28;20045;-83
2022/05/29 01:55:29;;;;;;;6.30;1.83;;;10.40;67.80;;;;;;5029655;28;20045;-83
2022/05/29 01:58:06;;;;;;;4.85;1.40;;;10.40;68.00;;;;;;5029419;28;20052;-83
2022/05/29 02:00:33;;;;;;;5.45;1.55;;;10.40;68.00;;;;;;5052216;28;20093;-83
2022/05/29 02:03:08;;;;;;;5.80;1.40;;;10.40;68.10;;;;;;5089978;28;20055;-82
2022/05/29 02:05:46;;;;;;;5.47;1.50;;;10.30;68.20;;;;;;5088965;28;20127;-82
2022/05/29 02:08:29;;;;;;;5.82;1.70;;;10.30;68.30;;;;;;5075064;28;20052;-82
2022/05/29 02:11:02;;;;;;;6.10;1.70;;;10.30;68.40;;;;;;5090444;28;20109;-83
2022/05/29 02:13:53;;;;;;;6.78;1.58;;;10.30;68.40;;;;;;5091465;28;20048;-82
2022/05/29 02:16:29;;;;;;;4.90;1.67;;;10.30;68.60;;;;;;5089794;28;20044;-83
2022/05/29 02:19:06;;;;;;;5.55;1.75;;;10.30;68.70;;;;;;5089973;28;20127;-83
2022/05/29 02:21:44;;;;;;;6.55;2.03;;;10.30;68.80;;;;;;5089895;28;20089;-82
2022/05/29 02:24:18;;;;;;;5.28;1.52;;;10.30;68.90;;;;;;5089958;28;20113;-83
2022/05/29 02:27:15;;;;;;;4.40;1.55;;;10.30;69.00;;;;;;5092664;28;20094;-83
2022/05/29 02:29:42;;;;;;;4.18;1.58;;;10.30;69.10;;;;;;5093910;28;20456;-83
2022/05/29 02:32:38;;;;;;;5.95;1.90;;;10.30;69.20;;;;;;5093520;28;20060;-83
2022/05/29 02:35:32;;;;;;;7.55;1.50;;;10.30;69.30;;;;;;5093953;28;20051;-83
2022/05/29 02:38:26;;;;;;;4.90;1.40;;;10.30;69.50;;;;;;5093000;28;20051;-82
2022/05/29 02:41:07;;;;;;;4.25;1.60;;;10.30;69.60;;;;;;5091090;28;20052;-82
2022/05/29 02:44:02;;;;;;;5.55;1.85;;;10.30;69.70;;;;;;5112677;27;20632;-82
2022/05/29 02:46:31;;;;;;;5.32;1.70;;;10.30;69.80;;;;;;5094544;28;20464;-83
2022/05/29 02:49:11;;;;;;;4.72;1.50;;;10.40;69.90;;;;;;5093584;28;20055;-83
2022/05/29 02:51:55;;;;;;;6.10;1.55;;;10.40;70.00;;;;;;5092173;28;20048;-82
2022/05/29 02:54:25;;;;;;;6.57;1.88;;;10.40;70.10;;;;;;5092382;28;20097;-82
2022/05/29 02:56:56;;;;;;;4.18;1.85;;;10.40;70.10;;;;;;5093406;28;20055;-82
2022/05/29 02:59:27;;;;;;;5.47;1.40;;;10.40;70.20;;;;;;5093194;28;20555;-82
2022/05/29 03:02:11;;;;;;;4.95;1.73;;;10.40;70.30;;;;;;5093451;28;20113;-83
2022/05/29 03:05:08;;;;;;;6.05;1.67;;;10.40;70.40;;;;;;5091485;28;20105;-82
2022/05/29 03:07:49;;;;;;;4.63;1.55;;;10.50;70.40;;;;;;5091159;28;20098;-82
2022/05/29 03:10:23;;;;;;;5.88;1.52;;;10.50;70.50;;;;;;5094762;28;20048;-82
2022/05/29 03:13:05;;;;;;;7.90;2.22;;;10.50;70.50;;;;;;5093185;28;20052;-83
2022/05/29 03:15:46;;;;;;;5.88;1.65;;;10.50;70.60;;;;;;5092505;28;20044;-82
2022/05/29 03:18:39;;;;;;;7.05;2.15;;;10.60;70.60;;;;;;5093159;28;20051;-82
2022/05/29 03:21:40;;;;;;;4.82;1.65;;;10.50;70.60;;;;;;5093019;28;20040;-82
2022/05/29 03:24:36;;;;;;;7.38;1.70;;;10.60;70.70;;;;;;5090372;28;20480;-83
2022/05/29 03:27:19;;;;;;;5.88;1.70;;;10.60;70.70;;;;;;5093010;28;20048;-82
2022/05/29 03:29:57;;;;;;;6.60;2.05;;;10.60;70.70;;;;;;5091346;28;20112;-82
2022/05/29 03:32:25;;;;;;;5.70;1.70;;;10.60;70.60;;;;;;5092878;28;20047;-82
2022/05/29 03:34:53;;;;;;;4.97;1.70;;;10.60;70.60;;;;;;5093270;28;20044;-82
2022/05/29 03:37:20;;;;;;;7.07;1.85;;;10.60;70.60;;;;;;5092747;28;20052;-82
2022/05/29 03:39:47;;;;;;;5.95;2.20;;;10.60;70.60;;;;;;5091525;28;20052;-82
2022/05/29 03:42:14;;;;;;;5.93;2.03;;;10.60;70.60;;;;;;5092613;28;20105;-82
2022/05/29 03:44:40;;;;;;;8.07;1.90;;;10.60;70.60;;;;;;5092257;28;20567;-82
2022/05/29 03:47:07;;;;;;;5.97;1.83;;;10.60;70.60;;;;;;5073781;28;20537;-82
2022/05/29 03:49:34;;;;;;;5.65;1.70;;;10.60;70.50;;;;;;5094635;28;20106;-82
2022/05/29 03:52:01;;;;;;;8.43;1.90;;;10.50;70.50;;;;;;5092198;28;20089;-82
2022/05/29 03:54:29;;;;;;;6.18;1.90;;;10.50;70.50;;;;;;5092316;28;20098;-82
2022/05/29 03:56:56;;;;;;;5.90;2.08;;;10.50;70.50;;;;;;5092313;28;20048;-84
2022/05/29 03:59:23;;;;;;;5.68;2.03;;;10.50;70.50;;;;;;5092051;28;20040;-82
2022/05/29 04:01:49;;;;;;;5.60;1.90;;;10.50;70.50;;;;;;5093267;28;20094;-83
2022/05/29 04:04:16;;;;;;;4.65;1.83;;;10.40;70.50;;;;;;5091979;28;20044;-83
2022/05/29 04:06:43;;;;;;;3.70;1.70;;;10.40;70.50;;;;;;5092295;28;20535;-82
2022/05/29 04:12:05;;;;;;;6.80;1.92;;;10.40;70.50;;;;;;5091506;28;20052;-83
2022/05/29 04:14:39;;;;;;;5.63;1.75;;;10.40;70.60;;;;;;5092081;28;20067;-83
2022/05/29 04:17:07;;;;;;;5.82;2.05;;;10.40;70.60;;;;;;5091994;28;20802;-82
2022/05/29 04:19:34;;;;;;;9.35;2.92;;;10.30;70.60;;;;;;5094150;28;20052;-82
2022/05/29 04:22:07;;;;;;;6.95;2.10;;;10.30;70.70;;;;;;5091707;28;20395;-82
2022/05/29 04:24:33;;;;;;;9.15;2.35;;;10.30;70.70;;;;;;5092050;28;20085;-82
2022/05/29 04:27:00;;;;;;;5.93;2.15;;;10.30;70.70;;;;;;5091311;28;20472;-83
2022/05/29 04:29:28;;;;;;;5.38;2.28;;;10.30;70.80;;;;;;5091765;28;20101;-82
2022/05/29 04:34:40;;;;;;;5.82;1.95;;;10.20;70.80;;;;;;5089751;28;20054;-82
2022/05/29 04:37:07;;;;;;;5.53;2.35;;;10.20;70.90;;;;;;5089648;28;20468;-82
2022/05/29 04:39:36;;;;;;;4.97;1.92;;;10.20;70.90;;;;;;5091461;28;20052;-82
2022/05/29 04:42:05;;;;;;;6.82;2.22;;;10.20;71.00;;;;;;5092263;28;20044;-84
2022/05/29 04:44:32;;;;;;;6.30;1.98;;;10.20;71.00;;;;;;5091666;28;20043;-82
2022/05/29 04:47:00;;;;;;;9.88;2.17;;;10.20;71.10;;;;;;5091416;28;20060;-82
2022/05/29 04:49:27;;;;;;;6.15;2.10;;;10.20;71.10;;;;;;5091140;28;20052;-82
2022/05/29 04:51:54;;;;;;;6.47;2.10;;;10.10;71.20;;;;;;5091110;28;20093;-81
2022/05/29 04:54:21;;;;;;;5.68;1.77;;;10.20;71.20;;;;;;5091278;28;20040;-83
2022/05/29 04:56:49;;;;;;;7.13;2.15;;;10.20;71.30;;;;;;5090764;28;20534;-83
2022/05/29 04:59:16;;;;;;;10.40;2.25;;;10.10;71.30;;;;;;5090087;28;20504;-83
2022/05/29 05:01:43;;;;;;;7.45;2.22;;;10.20;71.40;;;;;;5092497;28;20052;-82
2022/05/29 05:04:10;;;;;;;7.93;2.47;;;10.20;71.50;;;;;;5090446;28;20078;-82
2022/05/29 05:06:37;;;;;;;9.60;2.53;;;10.20;71.50;;;;;;5089964;28;20063;-82
2022/05/29 05:09:04;;;;;;;6.38;2.03;;;10.20;71.60;;;;;;5084016;28;20048;-82
2022/05/29 05:11:32;;;;;;;6.80;2.10;;;10.20;71.60;;;;;;5076542;28;20060;-82
2022/05/29 05:13:59;;;;;;;7.75;2.70;;;10.20;71.70;;;;;;5089846;28;20521;-82
2022/05/29 05:16:26;;;;;;;5.90;2.00;;;10.20;71.70;;;;;;5076718;28;20048;-83
2022/05/29 05:18:54;;;;;;;4.78;2.03;;;10.20;71.80;;;;;;5076906;28;20048;-82
2022/05/29 05:21:21;;;;;;;7.18;2.20;;;10.20;71.90;;;;;;5079233;28;20048;-82
2022/05/29 05:23:48;;;;;;;6.90;2.08;;;10.20;71.90;;;;;;5087465;28;20472;-82
2022/05/29 05:26:16;;;;;;;5.72;2.20;;;10.20;71.90;;;;;;5073703;28;20425;-82
2022/05/29 05:28:43;;;;;;;7.75;2.22;;;10.30;72.00;;;;;;5087859;28;20052;-82
2022/05/29 05:31:10;;;;;;;6.00;1.90;;;10.30;72.00;;;;;;5077109;28;20543;-82
2022/05/29 05:33:37;;;;;;;6.05;2.15;;;10.30;72.10;;;;;;5076579;28;20106;-82
2022/05/29 05:36:05;;;;;;;8.70;2.70;;;10.40;72.10;;;;;;5076884;28;20036;-82
2022/05/29 05:38:32;;;;;;;6.68;1.90;;;10.30;72.20;;;;;;5086603;28;20048;-81
2022/05/29 05:40:59;;;;;;;7.05;2.13;;;10.40;72.30;;;;;;5088173;28;20048;-83
2022/05/29 05:43:26;;;;;;;7.00;1.80;;;10.40;72.30;;;;;;5076350;28;20469;-82
2022/05/29 05:45:53;;;;;;;6.90;2.20;;;10.40;72.40;;;;;;5076146;28;20056;-83
2022/05/29 05:48:22;;;;;;;6.25;2.10;;;10.40;72.40;;;;;;5076599;28;20052;-83
2022/05/29 05:50:49;;;;;;;6.95;1.92;;;10.40;72.50;;;;;;5076250;28;20455;-83
2022/05/29 05:53:16;;;;;;;6.05;2.00;;;10.50;72.60;;;;;;5072428;28;20472;-84
2022/05/29 05:55:43;;;;;;;6.30;1.95;;;10.50;72.70;;;;;;5074927;28;20048;-83
2022/05/29 05:58:10;;;;;;;6.40;1.98;;;10.60;72.80;;;;;;5076869;28;20045;-83
2022/05/29 06:00:37;;;;;;;5.15;1.65;;;10.60;72.80;;;;;;5075496;28;20544;-83
2022/05/29 06:03:04;;;;;;;5.95;2.05;;;10.70;72.90;;;;;;5076662;28;20471;-83
2022/05/29 06:05:30;;;;;;;3.70;1.85;;;10.70;72.90;;;;;;5086883;28;20093;-83
2022/05/29 06:07:57;;;;;;;5.63;1.90;;;10.80;72.90;;;;;;5081530;28;20108;-83
2022/05/29 06:10:24;;;;;;;6.38;1.60;;;10.80;72.90;;;;;;5070404;28;20102;-84
2022/05/29 06:12:51;;;;;;;6.10;2.50;;;10.90;72.90;;;;;;5075857;28;20045;-84
2022/05/29 06:15:18;;;;;;;6.97;2.10;;;10.90;72.90;;;;;;5076270;28;20052;-84
2022/05/29 06:17:45;;;;;;;6.32;1.50;;;11.00;72.90;;;;;;5076005;28;20460;-84
2022/05/29 06:20:13;;;;;;;9.05;1.70;;;11.00;72.90;;;;;;5073442;28;20040;-83
2022/05/29 06:22:41;;;;;;;7.70;2.20;;;11.10;72.90;;;;;;5087109;28;20055;-83
2022/05/29 06:25:10;;;;;;;7.45;2.20;;;11.10;72.80;;;;;;5070087;28;20048;-84
2022/05/29 06:27:43;;;;;;;5.15;1.63;;;11.20;72.80;;;;;;5075064;28;20095;-84
2022/05/29 06:30:13;;;;;;;6.20;1.87;;;11.20;72.80;;;;;;5075965;28;20049;-84
2022/05/29 06:32:40;;;;;;;6.13;1.50;;;11.30;72.70;;;;;;5075426;28;20101;-83
2022/05/29 06:35:11;;;;;;;5.18;1.60;;;11.40;72.70;;;;;;5072092;28;20044;-83
2022/05/29 06:37:39;;;;;;;5.38;2.00;;;11.40;72.60;;;;;;5087411;28;20567;-82
2022/05/29 06:40:07;;;;;;;4.47;1.50;;;11.40;72.50;;;;;;5085173;28;20044;-83
2022/05/29 06:42:34;;;;;;;6.20;1.50;;;11.50;72.50;;;;;;5089318;28;20063;-83
2022/05/29 06:45:03;;;;;;;9.13;2.10;;;11.50;72.40;;;;;;5088225;28;20423;-84
2022/05/29 06:47:30;;;;;;;6.35;1.80;;;11.60;72.30;;;;;;5087333;28;20162;-84
2022/05/29 06:49:56;;;;;;;5.75;1.58;;;11.70;72.20;;;;;;5073000;28;20094;-84
2022/05/29 06:52:23;;;;;;;5.50;1.77;;;11.70;72.10;;;;;;5075480;28;20048;-84
2022/05/29 06:54:50;;;;;;;8.43;2.10;;;11.70;72.00;;;;;;5082359;28;20078;-84
2022/05/29 06:57:36;;;;;;;5.15;1.60;;;11.80;71.90;;;;;;5082283;28;20087;-84
2022/05/29 07:08:32;;;;;;;6.43;1.60;;;12.00;71.50;;;;;;5087383;28;20097;-83
2022/05/29 07:11:03;;;;;;;6.75;1.80;;;12.00;71.40;;;;;;5072121;28;21001;-83
2022/05/29 07:13:31;;;;;;;7.57;1.70;;;12.10;71.30;;;;;;5077402;28;20049;-83
2022/05/29 07:15:58;;;;;;;8.38;1.80;;;12.10;71.20;;;;;;5080673;28;20465;-83
2022/05/29 07:18:25;;;;;;;8.90;1.70;;;12.20;71.00;;;;;;5079053;28;20044;-83
2022/05/29 07:20:52;;;;;;;7.88;1.83;;;12.20;70.90;;;;;;5078662;28;20505;-83
2022/05/29 07:23:19;;;;;;;8.25;1.80;;;12.30;70.90;;;;;;5082459;28;20569;-83
2022/05/29 07:25:46;;;;;;;6.68;1.58;;;12.30;70.80;;;;;;5076758;28;20512;-83
2022/05/29 07:28:13;;;;;;;5.90;1.45;;;12.40;70.70;;;;;;5080509;28;20105;-83
2022/05/29 07:30:40;;;;;;;7.13;1.50;;;12.40;70.50;;;;;;5078720;28;20044;-83
2022/05/29 07:33:07;;;;;;;6.65;1.85;;;12.40;70.40;;;;;;5078889;28;20468;-83
2022/05/29 07:35:35;;;;;;;5.85;1.70;;;12.50;70.30;;;;;;5077311;28;20056;-83
2022/05/29 07:38:02;;;;;;;6.03;1.83;;;12.50;70.10;;;;;;5075089;28;20052;-84
2022/05/29 07:40:28;;;;;;;7.60;1.80;;;12.50;70.00;;;;;;5078576;28;20098;-83
2022/05/29 07:45:41;;;;;;;10.13;2.08;;;12.60;69.70;;;;;;5078397;28;20059;-83
2022/05/29 07:48:09;;;;;;;5.05;1.48;;;12.70;69.50;;;;;;5078191;28;20468;-83
2022/05/29 07:50:35;;;;;;;5.80;1.60;;;12.70;69.40;;;;;;5077418;28;20043;-83
2022/05/29 07:53:02;;;;;;;8.77;2.22;;;12.80;69.20;;;;;;5090653;28;20930;-84
2022/05/29 07:55:30;;;;;;;8.80;1.95;;;12.80;69.10;;;;;;5078464;28;20044;-83
2022/05/29 07:57:56;;;;;;;9.57;1.67;;;12.80;69.00;;;;;;5088423;28;20109;-84
2022/05/29 08:00:24;;;;;;;6.40;1.92;;;12.90;68.90;;;;;;5084073;28;20388;-83
2022/05/29 08:02:50;;;;;;;12.23;1.73;;;12.90;68.70;;;;;;5078084;28;20056;-82
2022/05/29 08:05:19;;;;;;;8.82;1.70;;;12.90;68.60;;;;;;5074796;28;20047;-83
2022/05/29 08:07:47;;;;;;;5.47;1.70;;;13.00;68.50;;;;;;5076054;28;20110;-83
2022/05/29 08:10:17;;;;;;;5.85;1.58;;;13.10;68.30;;;;;;5120974;27;20055;-84
2022/05/29 08:12:44;;;;;;;8.57;1.90;;;13.20;68.20;;;;;;5080616;28;20053;-83
2022/05/29 08:15:12;;;;;;;8.52;1.80;;;13.20;67.90;;;;;;5078051;28;20045;-83
2022/05/29 08:17:39;;;;;;;7.30;1.70;;;13.30;67.80;;;;;;5077660;28;20106;-83
2022/05/29 08:20:08;;;;;;;6.65;1.67;;;13.30;67.60;;;;;;5073254;28;20060;-82
2022/05/29 08:22:35;;;;;;;7.20;1.50;;;13.30;67.40;;;;;;5073378;28;20098;-84
2022/05/29 08:30:37;;;;;;;5.25;1.52;;;13.50;67.00;;;;;;5077777;28;20089;-84
2022/05/29 08:33:07;;;;;;;7.35;2.05;;;13.50;66.90;;;;;;5077319;28;20124;-83
2022/05/29 08:35:35;;;;;;;6.55;1.45;;;13.60;66.70;;;;;;5076534;28;20093;-83
2022/05/29 08:38:04;;;;;;;6.30;1.67;;;13.70;66.50;;;;;;5074061;28;20460;-83
2022/05/29 08:40:32;;;;;;;5.30;1.42;;;13.70;66.20;;;;;;5077504;28;20049;-83
2022/05/29 08:42:59;;;;;;;5.70;1.40;;;13.80;65.90;;;;;;5085573;28;20105;-83
2022/05/29 08:45:30;;;;;;;8.90;1.40;;;13.90;65.70;;;;;;5082741;28;20173;-83
2022/05/29 08:47:58;;;;;;;7.30;1.70;;;13.90;65.40;;;;;;5076173;28;20048;-83
2022/05/29 08:51:00;;;;;;;8.00;1.70;;;14.00;65.10;;;;;;5088787;28;20052;-82
2022/05/29 08:53:42;;;;;;;4.40;1.40;;;14.10;64.70;;;;;;5070685;28;20048;-83
2022/05/29 08:56:19;;;;;;;9.38;1.73;;;14.20;64.40;;;;;;5073135;28;20040;-83
2022/05/29 08:58:48;;;;;;;7.90;1.98;;;14.20;64.20;;;;;;5088246;28;20125;-83
2022/05/29 09:01:35;;;;;;;5.85;1.60;;;14.30;64.00;;;;;;5087599;28;20452;-83
2022/05/29 09:04:09;;;;;;;4.47;1.52;;;14.40;63.80;;;;;;5085366;28;20413;-82
2022/05/29 09:06:36;;;;;;;4.88;1.38;;;14.40;63.70;;;;;;5080841;28;20076;-82
2022/05/29 09:09:10;;;;;;;7.20;1.90;;;14.40;63.60;;;;;;5077370;28;20082;-83
2022/05/29 09:11:38;;;;;;;6.70;2.08;;;14.40;63.40;;;;;;5076186;28;20052;-83
2022/05/29 09:14:11;;;;;;;7.13;1.83;;;14.40;63.40;;;;;;5072410;28;20098;-83
2022/05/29 09:16:46;;;;;;;5.80;1.60;;;14.50;63.40;;;;;;5088381;28;20090;-83
2022/05/29 09:19:34;;;;;;;6.90;1.70;;;14.50;63.30;;;;;;5090357;28;20055;-83
2022/05/29 09:22:14;;;;;;;6.68;1.67;;;14.50;63.20;;;;;;5077156;28;20056;-83
2022/05/29 09:25:16;;;;;;;6.30;1.67;;;14.50;63.20;;;;;;5076625;28;20048;-82
2022/05/29 09:27:47;;;;;;;12.00;2.00;;;14.50;63.10;;;;;;5020612;28;20045;-83
2022/05/29 09:30:16;;;;;;;3.90;1.10;;;14.50;62.90;;;;;;5041326;28;20099;-83
2022/05/29 09:32:55;;;;;;;6.82;1.70;;;14.60;62.70;;;;;;5048075;28;20104;-83
2022/05/29 09:35:35;;;;;;;5.78;1.63;;;14.60;62.50;;;;;;5047668;28;20052;-83
2022/05/29 09:38:06;;;;;;;7.45;2.22;;;14.50;62.50;;;;;;5048152;28;20041;-83
2022/05/29 09:40:48;;;;;;;7.05;1.80;;;14.50;62.60;;;;;;5049702;28;20053;-83
2022/05/29 09:43:18;;;;;;;4.88;1.60;;;14.50;62.60;;;;;;5049123;28;20098;-82
2022/05/29 09:45:46;;;;;;;6.90;1.60;;;14.60;62.60;;;;;;5047721;28;20057;-82
2022/05/29 09:51:28;;;;;;;5.93;1.67;;;14.50;62.70;;;;;;5047924;28;20461;-83
2022/05/29 09:54:03;;;;;;;8.15;1.85;;;14.50;62.70;;;;;;5048023;28;20503;-84
2022/05/29 09:56:32;;;;;;;7.47;1.60;;;14.50;62.80;;;;;;5048423;28;20095;-83
2022/05/29 09:59:05;;;;;;;6.05;1.90;;;14.50;62.80;;;;;;5030991;28;20057;-83
2022/05/29 10:01:37;;;;;;;8.07;1.80;;;14.60;62.90;;;;;;5049359;28;20083;-83
2022/05/29 10:04:06;;;;;;;6.63;1.60;;;14.50;63.00;;;;;;5062463;28;20040;-84
2022/05/29 10:06:44;;;;;;;8.98;2.00;;;14.60;63.00;;;;;;5080631;28;20092;-83
2022/05/29 10:09:13;;;;;;;5.70;1.58;;;14.60;63.00;;;;;;5076251;28;20044;-84
2022/05/29 10:11:43;;;;;;;6.05;1.95;;;14.60;63.10;;;;;;5076170;28;20503;-84
2022/05/29 10:14:38;;;;;;;4.68;1.60;;;14.60;63.10;;;;;;5071858;28;20044;-84
2022/05/29 10:17:31;;;;;;;7.30;1.83;;;14.60;63.20;;;;;;5087160;28;20048;-83
2022/05/29 10:19:58;;;;;;;6.28;1.75;;;14.60;63.20;;;;;;5086782;28;20040;-83
2022/05/29 10:22:31;;;;;;;6.63;1.70;;;14.60;63.20;;;;;;5087282;28;20059;-84
2022/05/29 10:24:59;;;;;;;5.93;1.60;;;14.70;63.20;;;;;;5077055;28;20044;-84
2022/05/29 10:27:35;;;;;;;6.90;1.80;;;14.70;63.20;;;;;;5076410;28;20097;-84
2022/05/29 10:30:11;;;;;;;6.47;1.60;;;14.70;63.20;;;;;;5075679;28;20044;-84
2022/05/29 10:32:41;;;;;;;10.32;1.90;;;14.70;63.20;;;;;;5075163;28;20043;-84
2022/05/29 10:35:23;;;;;;;6.38;1.60;;;14.80;63.20;;;;;;5088447;28;20052;-83
2022/05/29 10:37:51;;;;;;;7.13;1.77;;;14.80;63.20;;;;;;5086190;28;20044;-83
2022/05/29 10:40:28;;;;;;;5.25;1.70;;;14.80;63.20;;;;;;5075986;28;20493;-83
2022/05/29 10:42:59;;;;;;;5.10;1.52;;;14.90;63.20;;;;;;5075838;28;20395;-82
2022/05/29 10:45:47;;;;;;;6.85;1.90;;;14.90;63.20;;;;;;5075436;28;20577;-83
2022/05/29 10:48:45;;;;;;;5.78;1.50;;;14.90;63.10;;;;;;5079179;28;20048;-83
2022/05/29 10:51:24;;;;;;;4.63;1.50;;;14.90;63.00;;;;;;5079905;28;20571;-83
2022/05/29 10:54:10;;;;;;;6.57;1.67;;;14.90;63.00;;;;;;5079588;28;20566;-83
2022/05/29 10:56:39;;;;;;;6.05;1.60;;;15.00;62.90;;;;;;5078920;28;20048;-82
2022/05/29 10:59:36;;;;;;;7.30;1.75;;;14.90;62.80;;;;;;5076193;28;20082;-83
2022/05/29 11:05:32;;;;;;;3.78;1.23;;;15.00;62.80;;;;;;5076237;28;20089;-83
2022/05/29 11:08:17;;;;;;;4.35;1.52;;;15.00;62.70;;;;;;5091724;28;20464;-83
2022/05/29 11:11:05;;;;;;;6.95;1.52;;;15.10;62.70;;;;;;5090514;28;20505;-83
2022/05/29 11:13:52;;;;;;;6.80;1.60;;;15.10;62.70;;;;;;5079056;28;20449;-84
2022/05/29 11:16:37;;;;;;;4.70;1.33;;;15.10;62.70;;;;;;5090213;28;20559;-84
2022/05/29 11:19:33;;;;;;;7.35;1.88;;;15.10;62.70;;;;;;5079662;28;20052;-84
2022/05/29 11:22:20;;;;;;;4.97;1.30;;;15.10;62.60;;;;;;5079197;28;20563;-84
2022/05/29 11:24:55;;;;;;;4.53;1.45;;;15.10;62.60;;;;;;5079293;28;20453;-84
2022/05/29 11:27:46;;;;;;;4.95;1.42;;;15.10;62.60;;;;;;5078836;28;20581;-84
2022/05/29 11:30:50;;;;;;;6.38;1.50;;;15.10;62.60;;;;;;5079242;28;20086;-83
2022/05/29 11:33:41;;;;;;;5.53;1.52;;;15.10;62.60;;;;;;5079087;28;20469;-83
2022/05/29 11:36:13;;;;;;;8.35;1.90;;;15.10;62.70;;;;;;5079119;28;20045;-83
2022/05/29 11:39:02;;;;;;;6.35;1.52;;;15.10;62.70;;;;;;5078756;28;20082;-83
2022/05/29 11:41:48;;;;;;;6.30;1.58;;;15.10;62.70;;;;;;5076854;28;20040;-83
2022/05/29 11:44:21;;;;;;;5.18;1.60;;;15.00;62.80;;;;;;5075031;28;20094;-83
2022/05/29 11:53:05;;;;;;;4.15;1.48;;;15.00;63.00;;;;;;5089158;28;20403;-83
2022/05/29 11:55:38;;;;;;;6.07;1.60;;;15.10;63.00;;;;;;5078161;28;20052;-83
2022/05/29 11:58:31;;;;;;;4.80;1.23;;;15.10;63.00;;;;;;5086358;28;20105;-82
2022/05/29 12:01:10;;;;;;;4.03;1.25;;;15.20;63.00;;;;;;5030195;28;20045;-82
2022/05/29 12:03:39;;;;;;;4.57;1.17;;;15.20;63.00;;;;;;5030373;28;20057;-83
2022/05/29 12:06:29;;;;;;;4.95;1.52;;;15.30;63.00;;;;;;5030255;28;20051;-83
2022/05/29 12:09:24;;;;;;;4.05;1.33;;;15.40;63.00;;;;;;5030245;28;20045;-83
2022/05/29 12:12:14;;;;;;;4.88;1.20;;;15.40;62.80;;;;;;5030044;28;20103;-83
2022/05/29 12:14:47;;;;;;;4.03;1.20;;;15.50;62.60;;;;;;5030315;28;20528;-83
2022/05/29 12:17:33;;;;;;;4.75;1.40;;;15.60;62.40;;;;;;5015079;28;20041;-83
2022/05/29 12:20:37;;;;;;;5.93;1.42;;;15.70;62.20;;;;;;5030159;28;20404;-83
2022/05/29 12:23:31;;;;;;;3.17;0.93;;;15.80;62.00;;;;;;5029860;28;20096;-83
2022/05/29 12:26:07;;;;;;;4.63;1.10;;;15.90;61.80;;;;;;5028213;28;20049;-83
2022/05/29 12:28:41;;;;;;;3.28;1.10;;;15.90;61.60;;;;;;5015008;28;20066;-83
2022/05/29 12:31:19;;;;;;;4.78;1.10;;;16.00;61.30;;;;;;5030045;28;20455;-83
2022/05/29 12:33:47;;;;;;;6.30;1.10;;;16.10;61.10;;;;;;5029792;28;20053;-83
2022/05/29 12:36:59;;;;;;;3.03;1.10;;;16.20;60.90;;;;;;5029810;28;20045;-83
2022/05/29 12:40:11;;;;;;;2.85;1.10;;;16.20;60.70;;;;;;5082861;28;20098;-83
2022/05/29 12:42:38;;;;;;;5.82;1.20;;;16.20;60.60;;;;;;5077567;28;20048;-83
2022/05/29 12:45:14;;;;;;;4.55;1.33;;;16.20;60.50;;;;;;5077399;28;20110;-83
2022/05/29 12:47:44;;;;;;;4.50;1.20;;;16.20;60.50;;;;;;5077237;28;20043;-83
2022/05/29 12:51:01;;;;;;;6.82;1.27;;;16.20;60.40;;;;;;5074805;28;20135;-83
2022/05/29 12:54:05;;;;;;;6.55;1.25;;;16.30;60.40;;;;;;5075095;28;20052;-82
2022/05/29 12:57:03;;;;;;;7.43;1.45;;;16.30;60.20;;;;;;5074601;28;20059;-83
2022/05/29 13:00:02;;;;;;;5.53;1.30;;;16.30;60.10;;;;;;5076433;28;20564;-83
2022/05/29 13:03:10;;;;;;;5.10;1.42;;;16.30;60.00;;;;;;5075135;28;20645;-84
2022/05/29 13:06:13;;;;;;;3.42;1.10;;;16.40;60.00;;;;;;5076072;28;20056;-83
2022/05/29 13:08:59;;;;;;;2.15;0.90;;;16.40;60.00;;;;;;5076308;28;20052;-84
2022/05/29 13:11:31;;;;;;;5.13;1.05;;;16.50;59.90;;;;;;5074465;28;20456;-83
2022/05/29 13:14:03;;;;;;;3.63;1.00;;;16.60;59.90;;;;;;5073920;28;20044;-83
2022/05/29 13:16:43;;;;;;;4.65;1.30;;;16.60;59.80;;;;;;5076832;28;20106;-83
2022/05/29 13:19:21;;;;;;;3.95;1.08;;;16.70;59.70;;;;;;5078591;28;20049;-83
2022/05/29 13:22:05;;;;;;;3.65;0.98;;;16.80;59.60;;;;;;5076833;28;20101;-85
2022/05/29 13:24:41;;;;;;;5.30;1.17;;;16.90;59.40;;;;;;5076332;28;20052;-84
2022/05/29 13:27:17;;;;;;;4.78;1.30;;;16.90;59.30;;;;;;5076945;28;20097;-85
2022/05/29 13:29:46;;;;;;;2.95;0.93;;;17.00;59.10;;;;;;5076864;28;20502;-84
2022/05/29 13:32:12;;;;;;;4.85;1.00;;;17.00;59.00;;;;;;5072347;28;20047;-84
2022/05/29 13:34:47;;;;;;;3.00;1.20;;;17.10;58.90;;;;;;5076209;28;20099;-85
2022/05/29 13:37:42;;;;;;;3.92;1.20;;;17.20;58.70;;;;;;5077298;28;20094;-84
2022/05/29 13:40:16;;;;;;;5.10;1.23;;;17.20;58.60;;;;;;5071605;28;20527;-84
2022/05/29 13:42:48;;;;;;;6.55;1.38;;;17.30;58.50;;;;;;5076433;28;20052;-84
2022/05/29 13:45:23;;;;;;;4.28;0.95;;;17.30;58.30;;;;;;5083279;28;20051;-84
2022/05/29 13:48:27;;;;;;;3.83;1.10;;;17.40;58.10;;;;;;5085234;28;20164;-84
2022/05/29 13:51:04;;;;;;;3.22;1.00;;;17.40;58.00;;;;;;5085808;28;20059;-84
2022/05/29 13:54:04;;;;;;;4.15;1.15;;;17.50;57.80;;;;;;5074311;28;20040;-83
2022/05/29 13:56:53;;;;;;;5.70;1.10;;;17.60;57.60;;;;;;5071747;28;20078;-83
2022/05/29 14:05:35;;;;;;;2.58;1.00;;;17.90;56.80;;;;;;5073564;28;20549;-83
2022/05/29 14:08:17;;;;;;;2.38;0.85;;;17.90;56.50;;;;;;5072659;28;20048;-84